Time;durP1;ratioP1;P1;durP2;ratioP2;P2;SDS_P1;SDS_P2;PMS_P1;PMS_P2;Temp;Humidity;BMP_temperature;BMP_pressure;BME280_temperature;BME280_humidity;BME280_pressure;Samples;Min_cycle;Max_cycle;Signal;HPM_P1;HPM_P2
2021/12/03 00:01:20;;;;;;;52.53;27.50;;;1.50;99.90;;;;;;4999874;28;20034;-58
2021/12/03 00:03:46;;;;;;;48.63;27.08;;;1.60;99.90;;;;;;5005012;28;20497;-55
2021/12/03 00:06:13;;;;;;;44.13;23.80;;;1.60;99.90;;;;;;5005162;28;20492;-58
2021/12/03 00:08:40;;;;;;;42.15;21.33;;;1.60;99.90;;;;;;5001014;28;20083;-58
2021/12/03 00:11:09;;;;;;;41.33;21.77;;;1.60;99.90;;;;;;5000077;28;20034;-54
2021/12/03 00:13:34;;;;;;;38.92;21.17;;;1.60;99.90;;;;;;5008268;28;20088;-53
2021/12/03 00:16:01;;;;;;;41.67;22.05;;;1.60;99.90;;;;;;5005088;28;20025;-56
2021/12/03 00:18:27;;;;;;;38.72;23.00;;;1.60;99.90;;;;;;5007519;28;20061;-57
2021/12/03 00:20:53;;;;;;;48.30;23.15;;;1.60;99.90;;;;;;5003529;28;20035;-54
2021/12/03 00:23:20;;;;;;;42.65;25.33;;;1.60;99.90;;;;;;5006030;28;20057;-58
2021/12/03 00:25:46;;;;;;;39.13;22.02;;;1.50;99.90;;;;;;4997296;28;20033;-58
2021/12/03 00:28:12;;;;;;;37.08;22.27;;;1.50;99.90;;;;;;5001884;28;20046;-56
2021/12/03 00:30:37;;;;;;;44.92;24.25;;;1.50;99.90;;;;;;5004434;28;20069;-57
2021/12/03 00:33:06;;;;;;;43.53;25.17;;;1.50;99.90;;;;;;5003738;28;20042;-57
2021/12/03 00:35:32;;;;;;;51.00;25.05;;;1.40;99.90;;;;;;5002983;28;20052;-58
2021/12/03 00:37:59;;;;;;;46.28;25.40;;;1.40;99.90;;;;;;5005460;28;20037;-53
2021/12/03 00:40:32;;;;;;;44.15;25.98;;;1.30;99.90;;;;;;5005980;28;20121;-57
2021/12/03 00:42:58;;;;;;;43.45;23.52;;;1.30;99.90;;;;;;4997510;28;20030;-57
2021/12/03 00:45:23;;;;;;;47.08;25.50;;;1.30;99.90;;;;;;5004694;28;20100;-55
2021/12/03 00:47:49;;;;;;;47.45;25.55;;;1.30;99.90;;;;;;5005438;28;20763;-56
2021/12/03 00:50:22;;;;;;;45.83;26.73;;;1.30;99.90;;;;;;5004844;28;20038;-56
2021/12/03 00:52:49;;;;;;;45.70;25.70;;;1.20;99.90;;;;;;5000549;28;20026;-58
2021/12/03 00:55:16;;;;;;;51.75;29.02;;;1.20;99.90;;;;;;5000657;28;20479;-57
2021/12/03 00:57:41;;;;;;;48.60;26.23;;;1.20;99.90;;;;;;5006128;28;20038;-56
2021/12/03 01:00:13;;;;;;;48.33;26.30;;;1.20;99.90;;;;;;5005902;28;20045;-56
2021/12/03 01:02:39;;;;;;;57.00;29.25;;;1.20;99.90;;;;;;5001654;28;20034;-55
2021/12/03 01:05:06;;;;;;;59.45;32.38;;;1.20;99.90;;;;;;5007867;28;20040;-53
2021/12/03 01:07:31;;;;;;;66.60;33.33;;;1.20;99.90;;;;;;5002238;28;20072;-57
2021/12/03 01:09:57;;;;;;;58.90;33.13;;;1.20;99.90;;;;;;4999029;28;20034;-56
2021/12/03 01:12:23;;;;;;;72.80;35.92;;;1.20;99.90;;;;;;5005178;28;20054;-56
2021/12/03 01:14:49;;;;;;;61.28;33.08;;;1.10;99.90;;;;;;5014455;28;20034;-55
2021/12/03 01:17:15;;;;;;;63.13;33.70;;;1.10;99.90;;;;;;5007062;28;20108;-56
2021/12/03 01:19:41;;;;;;;63.92;34.17;;;1.00;99.90;;;;;;5009949;28;20048;-55
2021/12/03 01:22:06;;;;;;;71.28;36.60;;;0.90;99.90;;;;;;5004197;28;20038;-53
2021/12/03 01:24:32;;;;;;;67.30;34.90;;;1.00;99.90;;;;;;4997702;28;20026;-56
2021/12/03 01:26:58;;;;;;;74.05;34.75;;;1.00;99.90;;;;;;4998742;28;20032;-56
2021/12/03 01:29:24;;;;;;;66.13;33.17;;;1.10;99.90;;;;;;5001576;28;20046;-56
2021/12/03 01:31:53;;;;;;;64.50;32.83;;;1.10;99.90;;;;;;4996717;28;20566;-60
2021/12/03 01:34:18;;;;;;;65.32;32.13;;;1.10;99.90;;;;;;5004923;28;20038;-57
2021/12/03 01:36:44;;;;;;;60.88;32.10;;;1.10;99.90;;;;;;5000546;28;20072;-59
2021/12/03 01:39:12;;;;;;;61.92;32.15;;;1.10;99.90;;;;;;4999406;28;20484;-58
2021/12/03 01:41:38;;;;;;;54.85;30.33;;;1.20;99.90;;;;;;5002710;28;20495;-52
2021/12/03 01:44:04;;;;;;;56.30;30.48;;;1.20;99.90;;;;;;4996360;28;20065;-59
2021/12/03 01:46:31;;;;;;;52.03;29.80;;;1.20;99.90;;;;;;5001241;28;20519;-59
2021/12/03 01:48:58;;;;;;;49.13;27.20;;;1.20;99.90;;;;;;5000940;28;20022;-56
2021/12/03 01:51:25;;;;;;;53.90;28.67;;;1.20;99.90;;;;;;4998710;28;20046;-54
2021/12/03 01:53:52;;;;;;;51.58;27.50;;;1.20;99.90;;;;;;4995170;28;20037;-60
2021/12/03 01:56:19;;;;;;;54.63;28.50;;;1.30;99.90;;;;;;5001434;28;20030;-58
2021/12/03 01:58:47;;;;;;;55.60;28.90;;;1.20;99.90;;;;;;5004792;28;20104;-57
2021/12/03 02:01:16;;;;;;;54.15;29.50;;;1.30;99.90;;;;;;5007641;28;20057;-55
2021/12/03 02:03:46;;;;;;;56.60;30.73;;;1.20;99.90;;;;;;5001129;28;20033;-55
2021/12/03 02:06:12;;;;;;;50.38;28.25;;;1.30;99.90;;;;;;4999935;28;20506;-57
2021/12/03 02:08:38;;;;;;;59.35;30.05;;;1.30;99.90;;;;;;5001665;28;20034;-58
2021/12/03 02:11:06;;;;;;;47.13;26.15;;;1.30;99.90;;;;;;5008075;28;20585;-57
2021/12/03 02:13:32;;;;;;;51.65;26.63;;;1.30;99.90;;;;;;5010045;28;20048;-53
2021/12/03 02:15:59;;;;;;;50.50;26.52;;;1.20;99.90;;;;;;5008505;28;20496;-56
2021/12/03 02:18:24;;;;;;;53.55;27.30;;;1.30;99.90;;;;;;5006777;28;20029;-56
2021/12/03 02:20:52;;;;;;;48.55;26.35;;;1.30;99.90;;;;;;5001609;28;20403;-56
2021/12/03 02:23:18;;;;;;;50.72;25.40;;;1.30;99.90;;;;;;5004312;28;20045;-54
2021/12/03 02:25:44;;;;;;;42.58;24.73;;;1.30;99.90;;;;;;5007189;28;20045;-57
2021/12/03 02:28:11;;;;;;;53.38;25.98;;;1.30;99.90;;;;;;5000668;28;20073;-54
2021/12/03 02:30:37;;;;;;;49.97;26.75;;;1.40;99.90;;;;;;4994662;28;20042;-54
2021/12/03 02:33:02;;;;;;;50.95;25.33;;;1.40;99.90;;;;;;5001891;28;20041;-55
2021/12/03 02:35:28;;;;;;;50.17;26.25;;;1.40;99.90;;;;;;5000307;28;20034;-57
2021/12/03 02:37:55;;;;;;;47.25;26.40;;;1.40;99.90;;;;;;4996644;28;20518;-57
2021/12/03 02:40:22;;;;;;;57.80;25.42;;;1.50;99.90;;;;;;4995850;28;20041;-56
2021/12/03 02:42:48;;;;;;;44.58;25.92;;;1.40;99.90;;;;;;4998330;28;20536;-57
2021/12/03 02:45:15;;;;;;;47.22;25.38;;;1.40;99.90;;;;;;4992041;28;20125;-57
2021/12/03 02:47:41;;;;;;;42.72;24.10;;;1.40;99.90;;;;;;4998829;28;20491;-56
2021/12/03 02:50:08;;;;;;;51.05;26.45;;;1.40;99.90;;;;;;4999430;28;20113;-59
2021/12/03 02:52:34;;;;;;;45.42;23.70;;;1.40;99.90;;;;;;5001754;28;20041;-58
2021/12/03 02:55:00;;;;;;;44.70;24.63;;;1.40;99.90;;;;;;5006072;28;20029;-50
2021/12/03 02:57:26;;;;;;;53.00;24.58;;;1.40;99.90;;;;;;4998115;28;20576;-52
2021/12/03 02:59:51;;;;;;;46.83;22.17;;;1.40;99.90;;;;;;5002428;28;20054;-57
2021/12/03 03:02:17;;;;;;;50.78;25.35;;;1.40;99.90;;;;;;5002811;28;20056;-59
2021/12/03 03:04:43;;;;;;;42.95;23.75;;;1.40;99.90;;;;;;5001809;28;20510;-59
2021/12/03 03:07:09;;;;;;;44.50;23.15;;;1.40;99.90;;;;;;5005604;28;20042;-55
2021/12/03 03:09:34;;;;;;;39.47;21.10;;;1.40;99.90;;;;;;5018257;28;20034;-57
2021/12/03 03:12:00;;;;;;;44.47;22.17;;;1.40;99.90;;;;;;5004422;28;20057;-56
2021/12/03 03:14:26;;;;;;;39.53;21.25;;;1.40;99.90;;;;;;5011010;28;20026;-56
2021/12/03 03:16:53;;;;;;;40.65;21.05;;;1.40;99.90;;;;;;5015409;28;20026;-55
2021/12/03 03:19:21;;;;;;;38.97;21.27;;;1.40;99.90;;;;;;5006266;28;20100;-57
2021/12/03 03:21:47;;;;;;;38.00;19.20;;;1.40;99.90;;;;;;4998871;28;20070;-59
2021/12/03 03:24:15;;;;;;;35.17;20.13;;;1.40;99.90;;;;;;5007658;28;20034;-57
2021/12/03 03:26:44;;;;;;;36.97;19.23;;;1.50;99.90;;;;;;5002075;28;20030;-57
2021/12/03 03:29:13;;;;;;;38.00;18.85;;;1.50;99.90;;;;;;5005625;28;20427;-56
2021/12/03 03:31:39;;;;;;;38.67;20.10;;;1.50;99.90;;;;;;5003494;28;20038;-55
2021/12/03 03:34:07;;;;;;;39.20;21.52;;;1.50;99.90;;;;;;5006856;28;20480;-57
2021/12/03 03:36:34;;;;;;;35.47;19.25;;;1.50;99.90;;;;;;5004456;28;20041;-56
2021/12/03 03:39:01;;;;;;;33.60;19.55;;;1.50;99.90;;;;;;5004714;28;20084;-59
2021/12/03 03:41:27;;;;;;;36.80;18.95;;;1.50;99.90;;;;;;5017785;28;20109;-57
2021/12/03 03:43:53;;;;;;;32.78;18.08;;;1.50;99.90;;;;;;5012871;28;20112;-54
2021/12/03 03:46:18;;;;;;;34.65;18.27;;;1.50;99.90;;;;;;5003286;28;20037;-55
2021/12/03 03:48:44;;;;;;;30.30;16.77;;;1.50;99.90;;;;;;5005015;28;20117;-59
2021/12/03 03:51:10;;;;;;;35.45;17.75;;;1.40;99.90;;;;;;5020762;28;20040;-57
2021/12/03 03:53:38;;;;;;;32.80;18.30;;;1.40;99.90;;;;;;5006000;28;20022;-55
2021/12/03 03:56:05;;;;;;;41.28;18.83;;;1.40;99.90;;;;;;5003189;28;20499;-55
2021/12/03 03:58:30;;;;;;;34.78;18.23;;;1.50;99.90;;;;;;4998395;28;20018;-57
2021/12/03 04:00:56;;;;;;;37.28;17.45;;;1.40;99.90;;;;;;5007882;28;20033;-54
2021/12/03 04:03:21;;;;;;;36.78;19.15;;;1.40;99.90;;;;;;5003913;28;20031;-57
2021/12/03 04:05:47;;;;;;;36.22;17.88;;;1.40;99.90;;;;;;5015737;28;20045;-57
2021/12/03 04:08:12;;;;;;;38.53;20.27;;;1.40;99.90;;;;;;5002715;28;20038;-56
2021/12/03 04:10:38;;;;;;;33.03;16.98;;;1.40;99.90;;;;;;5004736;28;20038;-55
2021/12/03 04:13:04;;;;;;;30.80;16.23;;;1.40;99.90;;;;;;4997839;28;20042;-52
2021/12/03 04:15:30;;;;;;;33.28;16.48;;;1.40;99.90;;;;;;5004342;28;20041;-59
2021/12/03 04:17:55;;;;;;;29.42;15.35;;;1.40;99.90;;;;;;5011584;28;20036;-58
2021/12/03 04:20:21;;;;;;;28.67;14.75;;;1.40;99.90;;;;;;5013279;28;20033;-56
2021/12/03 04:22:47;;;;;;;25.48;15.60;;;1.40;99.90;;;;;;5004753;28;20116;-58
2021/12/03 04:25:17;;;;;;;29.83;15.27;;;1.40;99.90;;;;;;4997623;28;20034;-57
2021/12/03 04:27:43;;;;;;;26.15;13.90;;;1.40;99.90;;;;;;4999309;28;20065;-59
2021/12/03 04:30:12;;;;;;;25.58;13.98;;;1.40;99.90;;;;;;4997572;28;20113;-58
2021/12/03 04:32:38;;;;;;;28.02;14.05;;;1.40;99.90;;;;;;5003444;28;20038;-58
2021/12/03 04:35:04;;;;;;;26.20;13.93;;;1.40;99.90;;;;;;4999477;28;20416;-51
2021/12/03 04:37:30;;;;;;;23.67;13.70;;;1.40;99.90;;;;;;5005355;28;20399;-58
2021/12/03 04:39:56;;;;;;;25.67;13.40;;;1.40;99.90;;;;;;5001324;28;20040;-57
2021/12/03 04:42:21;;;;;;;27.98;13.40;;;1.40;99.90;;;;;;5006623;28;20030;-60
2021/12/03 04:44:47;;;;;;;21.92;13.48;;;1.40;99.90;;;;;;5005256;28;20038;-56
2021/12/03 04:47:13;;;;;;;26.00;12.35;;;1.40;99.90;;;;;;5004466;28;20384;-57
2021/12/03 04:49:38;;;;;;;24.25;12.60;;;1.40;99.90;;;;;;5006415;28;20487;-55
2021/12/03 04:52:05;;;;;;;23.73;12.93;;;1.40;99.90;;;;;;5009741;28;20030;-57
2021/12/03 04:54:30;;;;;;;23.20;12.10;;;1.40;99.90;;;;;;5010748;28;20124;-58
2021/12/03 04:56:56;;;;;;;20.92;12.50;;;1.40;99.90;;;;;;5009106;28;20116;-57
2021/12/03 04:59:23;;;;;;;26.73;12.25;;;1.40;99.90;;;;;;5005614;28;20057;-57
2021/12/03 05:01:53;;;;;;;29.52;13.20;;;1.50;99.90;;;;;;5012849;28;20533;-57
2021/12/03 05:04:19;;;;;;;26.00;11.80;;;1.40;99.90;;;;;;5000654;28;20394;-58
2021/12/03 05:06:56;;;;;;;27.75;11.93;;;1.50;99.90;;;;;;5012384;28;20057;-60
2021/12/03 05:09:23;;;;;;;23.00;11.52;;;1.50;99.90;;;;;;5008468;28;20053;-58
2021/12/03 05:11:49;;;;;;;23.40;12.50;;;1.50;99.90;;;;;;5008930;28;20101;-57
2021/12/03 05:14:15;;;;;;;20.98;11.68;;;1.50;99.90;;;;;;5006590;28;20101;-56
2021/12/03 05:16:40;;;;;;;18.88;10.02;;;1.50;99.90;;;;;;5000932;28;20030;-56
2021/12/03 05:19:06;;;;;;;16.27;9.60;;;1.50;99.90;;;;;;4994817;28;20100;-55
2021/12/03 05:21:31;;;;;;;17.45;8.80;;;1.50;99.90;;;;;;4996715;28;20389;-59
2021/12/03 05:23:57;;;;;;;21.65;9.85;;;1.50;99.90;;;;;;5001932;28;20034;-56
2021/12/03 05:26:23;;;;;;;17.77;9.05;;;1.50;99.90;;;;;;4981939;28;20148;-57
2021/12/03 05:28:49;;;;;;;21.73;11.00;;;1.50;99.90;;;;;;4997085;28;20034;-56
2021/12/03 05:31:15;;;;;;;16.90;9.63;;;1.50;99.90;;;;;;5004901;28;20038;-59
2021/12/03 05:33:40;;;;;;;20.23;10.85;;;1.50;99.90;;;;;;4998746;28;20034;-56
2021/12/03 05:36:06;;;;;;;21.88;10.93;;;1.60;99.90;;;;;;4999469;28;20487;-56
2021/12/03 05:38:32;;;;;;;18.00;9.52;;;1.60;99.90;;;;;;4999052;28;21569;-58
2021/12/03 05:40:57;;;;;;;14.35;8.30;;;1.60;99.90;;;;;;5003664;28;20052;-54
2021/12/03 05:43:23;;;;;;;17.33;8.40;;;1.60;99.90;;;;;;5001585;28;20034;-57
2021/12/03 05:45:48;;;;;;;15.63;8.40;;;1.60;99.90;;;;;;4999467;28;20084;-57
2021/12/03 05:48:14;;;;;;;17.02;8.18;;;1.60;99.90;;;;;;5000040;28;20149;-58
2021/12/03 05:50:41;;;;;;;14.05;8.40;;;1.60;99.90;;;;;;5000644;28;20065;-58
2021/12/03 05:53:07;;;;;;;17.88;8.23;;;1.60;99.90;;;;;;5009997;28;20026;-55
2021/12/03 05:55:33;;;;;;;18.25;10.32;;;1.60;99.90;;;;;;5003366;28;20026;-57
2021/12/03 05:57:58;;;;;;;249.82;125.78;;;1.60;99.90;;;;;;5007111;28;20510;-57
2021/12/03 06:00:30;;;;;;;41.67;20.95;;;1.60;99.90;;;;;;5003483;28;20072;-59
2021/12/03 06:02:57;;;;;;;230.05;96.97;;;1.70;99.90;;;;;;5007920;28;20032;-57
2021/12/03 06:05:24;;;;;;;37.15;20.90;;;1.70;99.90;;;;;;5007013;28;20479;-57
2021/12/03 06:07:50;;;;;;;51.55;17.42;;;1.70;99.90;;;;;;5007039;28;20121;-57
2021/12/03 06:10:15;;;;;;;81.45;43.97;;;1.70;99.90;;;;;;5007062;28;20538;-58
2021/12/03 06:12:42;;;;;;;48.33;26.35;;;1.70;99.90;;;;;;5001319;28;20048;-55
2021/12/03 06:15:08;;;;;;;20.10;12.05;;;1.70;99.90;;;;;;5006956;28;20033;-56
2021/12/03 06:17:34;;;;;;;13.30;7.90;;;1.70;99.90;;;;;;5014737;28;20026;-55
2021/12/03 06:19:59;;;;;;;22.38;12.25;;;1.70;99.90;;;;;;5004107;28;20052;-58
2021/12/03 06:22:25;;;;;;;22.58;11.52;;;1.70;99.90;;;;;;5001924;28;20026;-59
2021/12/03 06:24:50;;;;;;;18.40;8.40;;;1.70;99.90;;;;;;4993137;28;20434;-57
2021/12/03 06:27:16;;;;;;;19.23;8.77;;;1.70;99.90;;;;;;5007667;28;20060;-57
2021/12/03 06:29:42;;;;;;;19.27;7.50;;;1.70;99.90;;;;;;4998687;28;20029;-58
2021/12/03 06:32:09;;;;;;;14.20;8.52;;;1.70;99.90;;;;;;5002392;28;20018;-58
2021/12/03 06:34:36;;;;;;;13.90;7.53;;;1.80;99.90;;;;;;5008337;28;20518;-55
2021/12/03 06:37:02;;;;;;;17.50;8.23;;;1.80;99.90;;;;;;4987770;28;20519;-55
2021/12/03 06:39:27;;;;;;;20.02;8.80;;;1.80;99.90;;;;;;4997467;28;20026;-60
2021/12/03 06:41:53;;;;;;;25.25;9.88;;;1.80;99.90;;;;;;5000746;28;20026;-56
2021/12/03 06:44:18;;;;;;;20.17;8.27;;;1.80;99.90;;;;;;5002749;28;20033;-57
2021/12/03 06:46:44;;;;;;;16.40;8.00;;;1.80;99.90;;;;;;5004481;28;20038;-59
2021/12/03 06:49:10;;;;;;;17.15;7.45;;;1.80;99.90;;;;;;5006316;28;20033;-57
2021/12/03 06:51:43;;;;;;;15.93;8.07;;;1.80;99.90;;;;;;5008893;28;20048;-55
2021/12/03 06:54:10;;;;;;;16.42;7.70;;;1.80;99.90;;;;;;4999770;28;20022;-55
2021/12/03 06:56:48;;;;;;;21.42;9.68;;;1.80;99.90;;;;;;5008652;28;20022;-57
2021/12/03 06:59:16;;;;;;;42.58;19.63;;;1.80;99.90;;;;;;5002922;28;20033;-51
2021/12/03 07:01:42;;;;;;;42.17;21.63;;;1.80;99.90;;;;;;5003396;28;20076;-59
2021/12/03 07:04:08;;;;;;;58.10;23.75;;;1.80;99.90;;;;;;5004227;28;20026;-56
2021/12/03 07:06:34;;;;;;;65.75;32.00;;;1.70;99.90;;;;;;5004722;28;20104;-55
2021/12/03 07:09:00;;;;;;;40.25;18.02;;;1.60;99.90;;;;;;5008295;28;20132;-53
2021/12/03 07:11:26;;;;;;;32.15;12.95;;;1.60;99.90;;;;;;5006386;28;20045;-57
2021/12/03 07:13:51;;;;;;;24.05;11.95;;;1.60;99.90;;;;;;5006559;28;20109;-57
2021/12/03 07:16:17;;;;;;;40.50;21.55;;;1.60;99.90;;;;;;5000670;28;20108;-55
2021/12/03 07:18:45;;;;;;;26.35;11.27;;;1.60;99.90;;;;;;5004401;28;20523;-57
2021/12/03 07:21:12;;;;;;;68.80;31.30;;;1.60;99.90;;;;;;5002883;28;20089;-57
2021/12/03 07:23:38;;;;;;;38.50;18.08;;;1.60;99.90;;;;;;5004807;28;20025;-54
2021/12/03 07:26:03;;;;;;;71.57;26.88;;;1.60;99.90;;;;;;4989375;28;20081;-54
2021/12/03 07:28:30;;;;;;;62.58;23.63;;;1.60;99.90;;;;;;5006110;28;20399;-57
2021/12/03 07:30:56;;;;;;;41.65;15.50;;;1.60;99.90;;;;;;5001407;28;20048;-57
2021/12/03 07:33:22;;;;;;;42.20;14.02;;;1.60;99.90;;;;;;5002152;28;20030;-56
2021/12/03 07:35:48;;;;;;;28.10;12.32;;;1.70;99.90;;;;;;5006029;28;20506;-56
2021/12/03 07:38:17;;;;;;;47.83;18.45;;;1.70;99.90;;;;;;5007295;28;20061;-57
2021/12/03 07:40:44;;;;;;;54.08;20.30;;;1.70;99.90;;;;;;5000944;28;20514;-57
2021/12/03 07:43:10;;;;;;;22.30;8.45;;;1.80;99.90;;;;;;5007437;28;20022;-58
2021/12/03 07:45:36;;;;;;;15.27;8.43;;;1.80;99.90;;;;;;4999692;28;20488;-57
2021/12/03 07:48:02;;;;;;;19.75;8.70;;;1.80;99.90;;;;;;5002405;28;20057;-55
2021/12/03 07:50:28;;;;;;;21.02;8.63;;;1.80;99.90;;;;;;5000969;28;20038;-56
2021/12/03 07:52:53;;;;;;;20.05;8.10;;;1.80;99.90;;;;;;5005153;28;20030;-56
2021/12/03 07:55:19;;;;;;;17.90;7.85;;;1.80;99.90;;;;;;5002605;28;20037;-54
2021/12/03 07:57:45;;;;;;;18.70;8.43;;;1.80;99.90;;;;;;5000444;28;20440;-57
2021/12/03 08:00:11;;;;;;;17.05;8.02;;;1.80;99.90;;;;;;5003850;28;20061;-59
2021/12/03 08:02:36;;;;;;;16.63;8.48;;;1.80;99.90;;;;;;5006296;28;20122;-58
2021/12/03 08:05:03;;;;;;;16.05;7.88;;;1.80;99.90;;;;;;4999356;28;20034;-57
2021/12/03 08:07:30;;;;;;;29.15;11.52;;;1.90;99.90;;;;;;5003461;28;20030;-58
2021/12/03 08:09:55;;;;;;;24.50;11.27;;;1.90;99.90;;;;;;5004963;28;20029;-57
2021/12/03 08:12:21;;;;;;;25.33;10.45;;;1.90;99.90;;;;;;4999473;28;20079;-59
2021/12/03 08:14:47;;;;;;;19.30;9.40;;;1.90;99.90;;;;;;5003784;28;20622;-56
2021/12/03 08:17:13;;;;;;;21.13;9.25;;;1.90;99.90;;;;;;5013716;28;20014;-57
2021/12/03 08:19:38;;;;;;;21.98;8.07;;;2.00;99.90;;;;;;5005602;28;20155;-56
2021/12/03 08:22:04;;;;;;;20.55;9.75;;;2.00;99.90;;;;;;4998902;28;20053;-58
2021/12/03 08:24:30;;;;;;;22.85;11.65;;;2.00;99.90;;;;;;4998753;28;20028;-59
2021/12/03 08:26:56;;;;;;;21.38;7.65;;;2.10;99.90;;;;;;4981701;28;20038;-56
2021/12/03 08:29:21;;;;;;;20.50;7.93;;;2.10;99.90;;;;;;4999178;28;20030;-58
2021/12/03 08:31:47;;;;;;;14.02;5.93;;;2.10;99.90;;;;;;4992228;28;20034;-57
2021/12/03 08:34:12;;;;;;;20.05;7.65;;;2.20;99.90;;;;;;4996592;28;20031;-59
2021/12/03 08:36:38;;;;;;;28.73;11.93;;;2.20;99.90;;;;;;4994868;28;20040;-56
2021/12/03 08:39:05;;;;;;;27.73;12.45;;;2.30;99.90;;;;;;4994560;28;20026;-56
2021/12/03 08:41:31;;;;;;;15.98;6.10;;;2.30;99.90;;;;;;5003239;28;20117;-59
2021/12/03 08:43:57;;;;;;;16.10;6.97;;;2.40;99.90;;;;;;5000720;28;20029;-56
2021/12/03 08:46:27;;;;;;;14.20;5.45;;;2.50;99.90;;;;;;4999930;28;20568;-56
2021/12/03 08:48:53;;;;;;;23.20;7.38;;;2.60;99.90;;;;;;4999972;28;20060;-59
2021/12/03 08:56:29;;;;;;;;;;;2.80;99.90;;;;;;4999391;28;20037;-56
2021/12/03 08:58:55;;;;;;;14.70;5.20;;;2.70;99.90;;;;;;5000531;28;20004;-57
2021/12/03 09:01:21;;;;;;;16.58;7.60;;;2.80;99.90;;;;;;5011862;28;20487;-56
2021/12/03 09:03:47;;;;;;;77.68;23.75;;;2.90;99.90;;;;;;5006633;28;20041;-59
2021/12/03 09:06:13;;;;;;;41.70;13.63;;;2.90;99.90;;;;;;5001792;28;20037;-55
2021/12/03 09:08:38;;;;;;;52.92;17.05;;;2.80;99.90;;;;;;5002022;28;20030;-59
2021/12/03 09:11:05;;;;;;;35.10;15.05;;;2.90;99.90;;;;;;5005675;28;20104;-57
2021/12/03 09:13:31;;;;;;;53.25;22.10;;;2.90;99.90;;;;;;4999251;28;20097;-59
2021/12/03 09:16:03;;;;;;;28.15;11.27;;;2.90;99.90;;;;;;5005410;28;20037;-56
2021/12/03 09:18:36;;;;;;;13.70;6.00;;;2.90;99.90;;;;;;5004488;28;20088;-58
2021/12/03 09:21:16;;;;;;;13.75;5.10;;;3.00;99.90;;;;;;5001334;28;20444;-58
2021/12/03 09:26:13;;;;;;;20.27;5.45;;;3.20;99.90;;;;;;4985478;28;20618;-57
2021/12/03 09:28:46;;;;;;;18.10;9.65;;;3.20;99.90;;;;;;5003827;28;20034;-57
2021/12/03 09:31:13;;;;;;;32.93;14.33;;;3.20;99.90;;;;;;4997673;28;20030;-56
2021/12/03 09:33:41;;;;;;;22.98;10.10;;;3.30;99.90;;;;;;5005773;28;20441;-56
2021/12/03 09:36:08;;;;;;;27.70;13.57;;;3.30;99.90;;;;;;5007969;28;20030;-58
2021/12/03 09:38:36;;;;;;;16.10;5.88;;;3.30;99.90;;;;;;5004406;28;20042;-57
2021/12/03 09:41:22;;;;;;;34.03;13.07;;;3.40;99.90;;;;;;5011460;28;20499;-56
2021/12/03 09:43:53;;;;;;;29.35;10.50;;;3.50;99.90;;;;;;5002208;28;20598;-61
2021/12/03 09:46:25;;;;;;;22.80;9.65;;;3.60;99.90;;;;;;5009099;28;20038;-59
2021/12/03 09:51:33;;;;;;;13.57;3.45;;;3.60;99.90;;;;;;5003387;28;20040;-59
2021/12/03 09:56:30;;;;;;;14.63;2.67;;;3.70;99.90;;;;;;5002904;28;20026;-58
2021/12/03 10:01:40;;;;;;;11.02;3.65;;;3.50;99.90;;;;;;5008548;28;20095;-58
2021/12/03 10:08:04;;;;;;;13.15;3.20;;;3.60;99.90;;;;;;5002502;28;20026;-58
2021/12/03 10:15:34;;;;;;;10.35;2.95;;;3.90;99.90;;;;;;5003381;28;19932;-58
2021/12/03 10:20:37;;;;;;;8.55;2.70;;;3.90;99.90;;;;;;5008271;28;20032;-59
2021/12/03 10:24:23;;;;;;;13.98;3.58;;;4.00;99.90;;;;;;4999141;28;20403;-59
2021/12/03 10:29:16;;;;;;;13.93;3.15;;;4.20;99.90;;;;;;5006490;28;20051;-57
2021/12/03 10:35:07;;;;;;;14.65;4.72;;;4.10;99.90;;;;;;5006057;28;20068;-58
2021/12/03 10:38:07;;;;;;;12.15;2.72;;;4.10;99.90;;;;;;4999101;28;20036;-56
2021/12/03 10:54:59;;;;;;;12.18;3.92;;;4.10;99.90;;;;;;5006823;28;20108;-58
2021/12/03 11:00:37;;;;;;;21.23;4.85;;;4.20;99.90;;;;;;4997115;28;20042;-57
2021/12/03 11:04:19;;;;;;;17.63;6.57;;;4.30;99.90;;;;;;5004976;28;20037;-58
2021/12/03 11:07:07;;;;;;;13.88;3.97;;;4.50;99.90;;;;;;5002269;28;20161;-61
2021/12/03 11:15:14;;;;;;;17.17;4.45;;;4.90;99.90;;;;;;4999771;28;20040;-59
2021/12/03 11:21:08;;;;;;;13.55;5.57;;;4.90;99.90;;;;;;5004013;28;20034;-60
2021/12/03 12:02:23;;;;;;;20.33;9.38;;;4.50;99.90;;;;;;5004894;28;20515;-52
2021/12/03 12:27:15;;;;;;;15.32;4.15;;;4.40;99.90;;;;;;4989667;28;20455;-59
2021/12/03 12:39:41;;;;;;;11.30;2.90;;;4.40;99.90;;;;;;5010783;28;20032;-60
2021/12/03 13:43:54;;;;;;;;;;;4.30;99.90;;;;;;5003943;28;20532;-59
2021/12/03 14:00:30;;;;;;;;;;;4.40;99.90;;;;;;5015567;28;20060;-54
2021/12/03 14:31:50;;;;;;;7.82;2.72;;;3.80;99.90;;;;;;5000410;28;20052;-59
2021/12/03 14:38:30;;;;;;;11.07;2.88;;;3.80;99.90;;;;;;5006124;28;20037;-56
2021/12/03 14:41:10;;;;;;;7.10;2.40;;;3.80;99.90;;;;;;4999165;28;20034;-59
2021/12/03 14:44:02;;;;;;;6.75;3.67;;;3.70;99.90;;;;;;5010206;28;20435;-53
2021/12/03 14:46:42;;;;;;;14.07;4.63;;;3.70;99.90;;;;;;5009742;28;20086;-56
2021/12/03 14:54:51;;;;;;;10.52;4.00;;;3.80;99.90;;;;;;5015362;28;19913;-58
2021/12/03 15:00:12;;;;;;;20.08;8.27;;;3.70;99.90;;;;;;5005200;28;20049;-57
2021/12/03 15:08:16;;;;;;;9.20;3.63;;;3.70;99.90;;;;;;5004453;28;20058;-58
2021/12/03 15:13:34;;;;;;;19.73;8.02;;;3.60;99.90;;;;;;5010235;28;20022;-59
2021/12/03 15:21:31;;;;;;;3.50;1.90;;;3.60;99.90;;;;;;5024801;28;19916;-57
2021/12/03 15:27:02;;;;;;;11.30;4.30;;;3.50;99.90;;;;;;5009428;28;20080;-56
2021/12/03 15:35:02;;;;;;;16.08;7.47;;;3.50;99.90;;;;;;5008526;28;20026;-56
2021/12/03 15:56:08;;;;;;;8.75;3.22;;;3.40;99.90;;;;;;5018083;28;20040;-55
2021/12/03 16:03:28;;;;;;;10.43;4.45;;;3.30;99.90;;;;;;5007258;28;20030;-58
2021/12/03 16:04:25;;;;;;;10.73;3.95;;;3.30;99.90;;;;;;5003185;28;20044;-57
2021/12/03 16:20:15;;;;;;;6.50;4.20;;;3.00;99.90;;;;;;4995393;28;20030;-57
2021/12/03 16:23:03;;;;;;;10.02;4.50;;;3.00;99.90;;;;;;4994639;28;20022;-57
2021/12/03 16:25:48;;;;;;;11.13;5.15;;;3.00;99.90;;;;;;4995674;28;20031;-59
2021/12/03 16:52:45;;;;;;;7.93;3.90;;;2.70;99.90;;;;;;5016956;28;20502;-58
2021/12/03 16:55:13;;;;;;;9.63;4.25;;;2.70;99.90;;;;;;5023637;28;20406;-54
2021/12/03 16:57:39;;;;;;;9.18;4.28;;;2.70;99.90;;;;;;5021088;28;20049;-58
2021/12/03 17:03:03;;;;;;;11.52;5.68;;;2.70;99.90;;;;;;5008868;28;20041;-58
2021/12/03 17:50:24;;;;;;;14.30;6.47;;;2.90;99.90;;;;;;5012540;28;20418;-57
2021/12/03 17:55:26;;;;;;;12.68;6.10;;;2.80;99.90;;;;;;5016554;28;20100;-56
2021/12/03 17:58:05;;;;;;;16.75;5.90;;;2.80;99.90;;;;;;5004352;28;20028;-57
2021/12/03 18:00:42;;;;;;;15.00;5.63;;;2.80;99.90;;;;;;4999685;28;20017;-56
2021/12/03 18:06:43;;;;;;;9.77;4.35;;;2.80;99.90;;;;;;4980716;28;20407;-56
2021/12/03 18:12:08;;;;;;;15.90;6.50;;;2.80;99.90;;;;;;5002766;28;20034;-56
2021/12/03 18:50:05;;;;;;;9.23;5.03;;;2.80;99.90;;;;;;5003793;28;20034;-57
2021/12/03 18:53:09;;;;;;;9.65;4.90;;;2.80;99.90;;;;;;5001856;28;20038;-57
2021/12/03 18:55:42;;;;;;;11.80;5.07;;;2.80;99.90;;;;;;5004346;28;20036;-57
2021/12/03 18:58:09;;;;;;;7.72;4.47;;;2.90;99.90;;;;;;4997776;28;20034;-57
2021/12/03 19:00:38;;;;;;;10.52;5.00;;;2.90;99.90;;;;;;4999133;28;20488;-56
2021/12/03 19:03:13;;;;;;;11.45;6.30;;;2.90;99.90;;;;;;5002289;28;20117;-55
2021/12/03 19:08:49;;;;;;;9.73;5.85;;;2.90;99.90;;;;;;5006074;28;20156;-57
2021/12/03 19:13:41;;;;;;;7.40;4.95;;;2.90;99.90;;;;;;5002706;28;21625;-57
2021/12/03 19:16:10;;;;;;;17.35;4.88;;;2.90;99.90;;;;;;5000733;28;20026;-56
2021/12/03 19:18:37;;;;;;;7.43;4.72;;;2.90;99.90;;;;;;5000862;28;20042;-55
2021/12/03 19:21:08;;;;;;;11.15;5.45;;;2.90;99.90;;;;;;5005304;28;20023;-59
2021/12/03 19:23:34;;;;;;;23.92;9.75;;;2.80;99.90;;;;;;5000484;28;20096;-56
2021/12/03 19:26:00;;;;;;;14.48;7.00;;;2.90;99.90;;;;;;5005753;28;20496;-56
2021/12/03 19:28:26;;;;;;;9.98;4.97;;;2.90;99.90;;;;;;5015597;28;20471;-58
2021/12/03 19:30:56;;;;;;;10.32;4.20;;;2.90;99.90;;;;;;5012522;28;20037;-57
2021/12/03 19:33:22;;;;;;;10.85;5.22;;;2.90;99.90;;;;;;5021042;28;20174;-57
2021/12/03 19:35:47;;;;;;;10.20;4.50;;;2.90;99.90;;;;;;5007025;28;20497;-59
2021/12/03 19:38:16;;;;;;;11.65;5.30;;;2.90;99.90;;;;;;5006727;28;20034;-57
2021/12/03 19:40:53;;;;;;;7.95;4.20;;;2.90;99.90;;;;;;5018208;28;20826;-56
2021/12/03 19:43:25;;;;;;;8.77;4.22;;;2.80;99.90;;;;;;5021329;28;20034;-56
2021/12/03 19:45:58;;;;;;;10.18;4.55;;;2.90;99.90;;;;;;5004750;28;20025;-56
2021/12/03 19:48:32;;;;;;;11.13;4.40;;;2.80;99.90;;;;;;5016129;28;20025;-56
2021/12/03 19:50:59;;;;;;;15.45;6.65;;;2.90;99.90;;;;;;5015124;28;20076;-56
2021/12/03 19:53:29;;;;;;;11.18;6.53;;;2.90;99.90;;;;;;5015543;28;20018;-59
2021/12/03 19:55:55;;;;;;;9.25;4.53;;;2.90;99.90;;;;;;5020029;28;20020;-57